sensor_id;sensor_type;location;lat;lon;timestamp;P1;P4;P2;P0;N10;N4;N25;N1;N05;TS
71550;SPS30;59367;48.414;9.872;2022-11-09T00:00:09;9.012183189;;9.012183189;;;;;;;
71550;SPS30;59367;48.414;9.872;2022-11-09T00:01:16;9.102993011;;9.102993011;;;;;;;
71550;SPS30;59367;48.414;9.872;2022-11-09T00:02:23;9.194548607;;9.194548607;;;;;;;
71550;SPS30;59367;48.414;9.872;2022-11-09T00:03:29;8.891590118;;8.891590118;;;;;;;
71550;SPS30;59367;48.414;9.872;2022-11-09T00:04:35;9.973996162;;9.973996162;;;;;;;
71550;SPS30;59367;48.414;9.872;2022-11-09T00:05:41;9.16324234;;9.16324234;;;;;;;
71550;SPS30;59367;48.414;9.872;2022-11-09T00:06:55;9.260682106;;9.260682106;;;;;;;
71550;SPS30;59367;48.414;9.872;2022-11-09T00:08:01;8.909215927;;8.909215927;;;;;;;
71550;SPS30;59367;48.414;9.872;2022-11-09T00:09:10;8.890547752;;8.890547752;;;;;;;
71550;SPS30;59367;48.414;9.872;2022-11-09T00:10:17;9.673477173;;9.673477173;;;;;;;
71550;SPS30;59367;48.414;9.872;2022-11-09T00:11:23;9.569092751;;9.569092751;;;;;;;
71550;SPS30;59367;48.414;9.872;2022-11-09T00:12:29;11.03312016;;11.03312016;;;;;;;
71550;SPS30;59367;48.414;9.872;2022-11-09T00:13:37;10.20272064;;10.20272064;;;;;;;
71550;SPS30;59367;48.414;9.872;2022-11-09T00:14:44;9.717162132;;9.717162132;;;;;;;
71550;SPS30;59367;48.414;9.872;2022-11-09T00:15:50;9.218276978;;9.218276978;;;;;;;
71550;SPS30;59367;48.414;9.872;2022-11-09T00:17:00;10.2385397;;10.2385397;;;;;;;
71550;SPS30;59367;48.414;9.872;2022-11-09T00:18:06;9.125394821;;9.125394821;;;;;;;
71550;SPS30;59367;48.414;9.872;2022-11-09T00:19:12;9.17538929;;9.17538929;;;;;;;
71550;SPS30;59367;48.414;9.872;2022-11-09T00:20:18;8.593606949;;8.593606949;;;;;;;
71550;SPS30;59367;48.414;9.872;2022-11-09T00:21:24;9.551963806;;9.551963806;;;;;;;
71550;SPS30;59367;48.414;9.872;2022-11-09T00:22:30;9.867113113;;9.867113113;;;;;;;
71550;SPS30;59367;48.414;9.872;2022-11-09T00:23:36;8.753949165;;8.753949165;;;;;;;
71550;SPS30;59367;48.414;9.872;2022-11-09T00:24:42;9.828458786;;9.828458786;;;;;;;
71550;SPS30;59367;48.414;9.872;2022-11-09T00:25:48;10.17919827;;10.17919827;;;;;;;
71550;SPS30;59367;48.414;9.872;2022-11-09T00:26:54;9.222548485;;9.222548485;;;;;;;
71550;SPS30;59367;48.414;9.872;2022-11-09T00:28:00;8.680295944;;8.680295944;;;;;;;
71550;SPS30;59367;48.414;9.872;2022-11-09T00:29:06;9.674899101;;9.674899101;;;;;;;
71550;SPS30;59367;48.414;9.872;2022-11-09T00:30:13;9.971200943;;9.971200943;;;;;;;
71550;SPS30;59367;48.414;9.872;2022-11-09T00:31:19;9.712675095;;9.712675095;;;;;;;
71550;SPS30;59367;48.414;9.872;2022-11-09T00:32:26;9.319022179;;9.319022179;;;;;;;
71550;SPS30;59367;48.414;9.872;2022-11-09T00:33:32;9.434952736;;9.434952736;;;;;;;
71550;SPS30;59367;48.414;9.872;2022-11-09T00:34:38;9.069195747;;9.069195747;;;;;;;
71550;SPS30;59367;48.414;9.872;2022-11-09T00:35:44;9.442596436;;9.442596436;;;;;;;
71550;SPS30;59367;48.414;9.872;2022-11-09T00:36:50;8.981394768;;8.981394768;;;;;;;
71550;SPS30;59367;48.414;9.872;2022-11-09T00:37:57;9.063314438;;9.063314438;;;;;;;
71550;SPS30;59367;48.414;9.872;2022-11-09T00:39:03;9.2707901;;9.2707901;;;;;;;
71550;SPS30;59367;48.414;9.872;2022-11-09T00:40:11;9.248785019;;9.248755455;;;;;;;
71550;SPS30;59367;48.414;9.872;2022-11-09T00:41:18;8.587611198;;8.587611198;;;;;;;
71550;SPS30;59367;48.414;9.872;2022-11-09T00:42:24;8.939555168;;8.939555168;;;;;;;
71550;SPS30;59367;48.414;9.872;2022-11-09T00:43:31;9.419606209;;9.419606209;;;;;;;
71550;SPS30;59367;48.414;9.872;2022-11-09T00:44:37;9.223686218;;9.223686218;;;;;;;
71550;SPS30;59367;48.414;9.872;2022-11-09T00:45:43;8.618218422;;8.617882729;;;;;;;
71550;SPS30;59367;48.414;9.872;2022-11-09T00:46:51;9.186290741;;9.186290741;;;;;;;
71550;SPS30;59367;48.414;9.872;2022-11-09T00:47:57;9.670032501;;9.670032501;;;;;;;
71550;SPS30;59367;48.414;9.872;2022-11-09T00:49:03;9.538150787;;9.538150787;;;;;;;
71550;SPS30;59367;48.414;9.872;2022-11-09T00:50:09;9.068992615;;9.068992615;;;;;;;
71550;SPS30;59367;48.414;9.872;2022-11-09T00:51:15;9.192459106;;9.192459106;;;;;;;
71550;SPS30;59367;48.414;9.872;2022-11-09T00:52:22;8.973619461;;8.973619461;;;;;;;
71550;SPS30;59367;48.414;9.872;2022-11-09T00:53:28;9.157757759;;9.157757759;;;;;;;
71550;SPS30;59367;48.414;9.872;2022-11-09T00:54:35;9.368758202;;9.368758202;;;;;;;
71550;SPS30;59367;48.414;9.872;2022-11-09T00:55:41;8.742929459;;8.740397453;;;;;;;
71550;SPS30;59367;48.414;9.872;2022-11-09T00:56:55;8.581168175;;8.581168175;;;;;;;
71550;SPS30;59367;48.414;9.872;2022-11-09T00:58:01;8.776853561;;8.776853561;;;;;;;
71550;SPS30;59367;48.414;9.872;2022-11-09T00:59:07;8.352790833;;8.352790833;;;;;;;
71550;SPS30;59367;48.414;9.872;2022-11-09T01:01:18;7.761575222;;7.761575222;;;;;;;
71550;SPS30;59367;48.414;9.872;2022-11-09T01:02:25;8.600710869;;8.600710869;;;;;;;
71550;SPS30;59367;48.414;9.872;2022-11-09T01:03:31;9.004412651;;9.004412651;;;;;;;
71550;SPS30;59367;48.414;9.872;2022-11-09T01:04:38;8.090435982;;8.090435982;;;;;;;
71550;SPS30;59367;48.414;9.872;2022-11-09T01:05:44;7.872347832;;7.872347832;;;;;;;
71550;SPS30;59367;48.414;9.872;2022-11-09T01:06:51;7.101549625;;7.101549625;;;;;;;
71550;SPS30;59367;48.414;9.872;2022-11-09T01:07:57;8.755820274;;8.755820274;;;;;;;
71550;SPS30;59367;48.414;9.872;2022-11-09T01:09:04;8.176779747;;8.176779747;;;;;;;
71550;SPS30;59367;48.414;9.872;2022-11-09T01:10:11;7.914360046;;7.914360046;;;;;;;
71550;SPS30;59367;48.414;9.872;2022-11-09T01:11:18;8.600378036;;8.600378036;;;;;;;
71550;SPS30;59367;48.414;9.872;2022-11-09T01:12:25;8.381129265;;8.381129265;;;;;;;
71550;SPS30;59367;48.414;9.872;2022-11-09T01:13:32;8.334080696;;8.334080696;;;;;;;
71550;SPS30;59367;48.414;9.872;2022-11-09T01:14:39;8.544755936;;8.544755936;;;;;;;
71550;SPS30;59367;48.414;9.872;2022-11-09T01:15:47;8.642396927;;8.642396927;;;;;;;
71550;SPS30;59367;48.414;9.872;2022-11-09T01:16:55;8.684855461;;8.684782982;;;;;;;
71550;SPS30;59367;48.414;9.872;2022-11-09T01:18:01;9.015412331;;9.015412331;;;;;;;
71550;SPS30;59367;48.414;9.872;2022-11-09T01:19:07;9.839816093;;9.839816093;;;;;;;
71550;SPS30;59367;48.414;9.872;2022-11-09T01:20:14;8.664969444;;8.664969444;;;;;;;
71550;SPS30;59367;48.414;9.872;2022-11-09T01:21:21;8.043113708;;8.043113708;;;;;;;
71550;SPS30;59367;48.414;9.872;2022-11-09T01:22:29;8.614480019;;8.614480019;;;;;;;
71550;SPS30;59367;48.414;9.872;2022-11-09T01:23:35;8.598823547;;8.598823547;;;;;;;
71550;SPS30;59367;48.414;9.872;2022-11-09T01:24:43;8.305376053;;8.305376053;;;;;;;
71550;SPS30;59367;48.414;9.872;2022-11-09T01:25:49;8.494239807;;8.494239807;;;;;;;
71550;SPS30;59367;48.414;9.872;2022-11-09T01:27:03;8.282623291;;8.282623291;;;;;;;
71550;SPS30;59367;48.414;9.872;2022-11-09T01:28:10;7.922659397;;7.922659397;;;;;;;
71550;SPS30;59367;48.414;9.872;2022-11-09T01:29:17;7.323559284;;7.323559284;;;;;;;
71550;SPS30;59367;48.414;9.872;2022-11-09T01:30:23;8.612533569;;8.612533569;;;;;;;
71550;SPS30;59367;48.414;9.872;2022-11-09T01:31:30;8.17110157;;8.17110157;;;;;;;
71550;SPS30;59367;48.414;9.872;2022-11-09T01:32:37;7.44836998;;7.44836998;;;;;;;
71550;SPS30;59367;48.414;9.872;2022-11-09T01:33:44;8.408841133;;8.408841133;;;;;;;
71550;SPS30;59367;48.414;9.872;2022-11-09T01:34:51;8.74993515;;8.74993515;;;;;;;
71550;SPS30;59367;48.414;9.872;2022-11-09T01:35:59;7.505925655;;7.505925655;;;;;;;
71550;SPS30;59367;48.414;9.872;2022-11-09T01:37:07;7.998042583;;7.998042583;;;;;;;
71550;SPS30;59367;48.414;9.872;2022-11-09T01:38:14;7.66448307;;7.66448307;;;;;;;
71550;SPS30;59367;48.414;9.872;2022-11-09T01:39:21;8.13416481;;8.13416481;;;;;;;
71550;SPS30;59367;48.414;9.872;2022-11-09T01:40:28;8.397920609;;8.397920609;;;;;;;
71550;SPS30;59367;48.414;9.872;2022-11-09T01:41:36;7.465249538;;7.465249538;;;;;;;
71550;SPS30;59367;48.414;9.872;2022-11-09T01:42:42;8.221307755;;8.221307755;;;;;;;
71550;SPS30;59367;48.414;9.872;2022-11-09T01:44:04;7.325166225;;7.325166225;;;;;;;
71550;SPS30;59367;48.414;9.872;2022-11-09T01:45:22;8.209503174;;8.209503174;;;;;;;
71550;SPS30;59367;48.414;9.872;2022-11-09T01:46:32;7.731622219;;7.731622219;;;;;;;
71550;SPS30;59367;48.414;9.872;2022-11-09T01:47:41;7.409424305;;7.409424305;;;;;;;
71550;SPS30;59367;48.414;9.872;2022-11-09T01:48:50;8.3624506;;8.3624506;;;;;;;
71550;SPS30;59367;48.414;9.872;2022-11-09T01:50:01;8.111771584;;8.111771584;;;;;;;
71550;SPS30;59367;48.414;9.872;2022-11-09T01:51:09;8.12759304;;8.12759304;;;;;;;
71550;SPS30;59367;48.414;9.872;2022-11-09T01:52:20;7.631577015;;7.631577015;;;;;;;
71550;SPS30;59367;48.414;9.872;2022-11-09T01:53:33;8.761834145;;8.761834145;;;;;;;
71550;SPS30;59367;48.414;9.872;2022-11-09T01:54:44;7.022579193;;7.022579193;;;;;;;
71550;SPS30;59367;48.414;9.872;2022-11-09T01:55:54;7.42620182;;7.42620182;;;;;;;
71550;SPS30;59367;48.414;9.872;2022-11-09T01:57:05;7.399920464;;7.399920464;;;;;;;
71550;SPS30;59367;48.414;9.872;2022-11-09T01:58:17;7.582199097;;7.582199097;;;;;;;
71550;SPS30;59367;48.414;9.872;2022-11-09T01:59:29;6.827065945;;6.827065945;;;;;;;
71550;SPS30;59367;48.414;9.872;2022-11-09T02:00:39;7.405328751;;7.405328751;;;;;;;
71550;SPS30;59367;48.414;9.872;2022-11-09T02:01:51;6.848065376;;6.848065376;;;;;;;
71550;SPS30;59367;48.414;9.872;2022-11-09T02:02:59;7.345828056;;7.345828056;;;;;;;
71550;SPS30;59367;48.414;9.872;2022-11-09T02:04:11;7.219959736;;7.219959736;;;;;;;
71550;SPS30;59367;48.414;9.872;2022-11-09T02:05:25;7.8441329;;7.8441329;;;;;;;
71550;SPS30;59367;48.414;9.872;2022-11-09T02:06:35;6.362839222;;6.362839222;;;;;;;
71550;SPS30;59367;48.414;9.872;2022-11-09T02:07:42;7.228777409;;7.228777409;;;;;;;
71550;SPS30;59367;48.414;9.872;2022-11-09T02:08:49;7.760054588;;7.760054588;;;;;;;
71550;SPS30;59367;48.414;9.872;2022-11-09T02:10:00;7.736256123;;7.736256123;;;;;;;
71550;SPS30;59367;48.414;9.872;2022-11-09T02:11:11;7.01214838;;7.01214838;;;;;;;
71550;SPS30;59367;48.414;9.872;2022-11-09T02:12:19;7.024219513;;7.024219513;;;;;;;
71550;SPS30;59367;48.414;9.872;2022-11-09T02:13:27;8.056832314;;8.01747036;;;;;;;
71550;SPS30;59367;48.414;9.872;2022-11-09T02:14:35;7.364421844;;7.340236187;;;;;;;
71550;SPS30;59367;48.414;9.872;2022-11-09T02:15:43;7.534945011;;7.534945011;;;;;;;
71550;SPS30;59367;48.414;9.872;2022-11-09T02:16:50;7.596942425;;7.596942425;;;;;;;
71550;SPS30;59367;48.414;9.872;2022-11-09T02:17:57;7.048574924;;7.048574924;;;;;;;
71550;SPS30;59367;48.414;9.872;2022-11-09T02:19:05;7.224026203;;7.224026203;;;;;;;
71550;SPS30;59367;48.414;9.872;2022-11-09T02:20:13;6.222999096;;6.221344471;;;;;;;
71550;SPS30;59367;48.414;9.872;2022-11-09T02:21:21;8.130536079;;8.130536079;;;;;;;
71550;SPS30;59367;48.414;9.872;2022-11-09T02:22:30;7.763098717;;7.763098717;;;;;;;
71550;SPS30;59367;48.414;9.872;2022-11-09T02:23:36;7.1518116;;7.1518116;;;;;;;
71550;SPS30;59367;48.414;9.872;2022-11-09T02:24:43;7.035913467;;7.035913467;;;;;;;
71550;SPS30;59367;48.414;9.872;2022-11-09T02:25:51;7.623712063;;7.623712063;;;;;;;
71550;SPS30;59367;48.414;9.872;2022-11-09T02:27:01;7.267805099;;7.267805099;;;;;;;
71550;SPS30;59367;48.414;9.872;2022-11-09T02:28:09;7.997889519;;7.997889519;;;;;;;
71550;SPS30;59367;48.414;9.872;2022-11-09T02:29:17;6.820352554;;6.820352554;;;;;;;
71550;SPS30;59367;48.414;9.872;2022-11-09T02:30:28;7.548000813;;7.548000813;;;;;;;
71550;SPS30;59367;48.414;9.872;2022-11-09T02:31:36;6.8424263;;6.8424263;;;;;;;
71550;SPS30;59367;48.414;9.872;2022-11-09T02:32:46;7.7194314;;7.7194314;;;;;;;
71550;SPS30;59367;48.414;9.872;2022-11-09T02:33:58;7.642581463;;7.642581463;;;;;;;
71550;SPS30;59367;48.414;9.872;2022-11-09T02:35:08;6.725529194;;6.725529194;;;;;;;
71550;SPS30;59367;48.414;9.872;2022-11-09T02:36:15;7.142320156;;7.142320156;;;;;;;
71550;SPS30;59367;48.414;9.872;2022-11-09T02:37:30;6.640399933;;6.640399933;;;;;;;
71550;SPS30;59367;48.414;9.872;2022-11-09T02:38:41;6.946115494;;6.946115494;;;;;;;
71550;SPS30;59367;48.414;9.872;2022-11-09T02:39:47;6.299230099;;6.299230099;;;;;;;
71550;SPS30;59367;48.414;9.872;2022-11-09T02:40:54;7.158492088;;7.158492088;;;;;;;
71550;SPS30;59367;48.414;9.872;2022-11-09T02:42:02;7.443178654;;7.443178654;;;;;;;
71550;SPS30;59367;48.414;9.872;2022-11-09T02:43:11;7.203858852;;7.203858852;;;;;;;
71550;SPS30;59367;48.414;9.872;2022-11-09T02:44:20;6.654418945;;6.654418945;;;;;;;
71550;SPS30;59367;48.414;9.872;2022-11-09T02:45:27;7.183398247;;7.183398247;;;;;;;
71550;SPS30;59367;48.414;9.872;2022-11-09T02:46:35;7.41546011;;7.41546011;;;;;;;
71550;SPS30;59367;48.414;9.872;2022-11-09T02:47:42;6.812586308;;6.812586308;;;;;;;
71550;SPS30;59367;48.414;9.872;2022-11-09T02:48:48;7.481822968;;7.481822968;;;;;;;
71550;SPS30;59367;48.414;9.872;2022-11-09T02:49:55;7.148445606;;7.148445606;;;;;;;
71550;SPS30;59367;48.414;9.872;2022-11-09T02:51:01;6.229516983;;6.229516983;;;;;;;
71550;SPS30;59367;48.414;9.872;2022-11-09T02:52:08;6.467353344;;6.467353344;;;;;;;
71550;SPS30;59367;48.414;9.872;2022-11-09T02:53:14;6.374657154;;6.374657154;;;;;;;
71550;SPS30;59367;48.414;9.872;2022-11-09T02:54:21;6.532004833;;6.532004833;;;;;;;
71550;SPS30;59367;48.414;9.872;2022-11-09T02:55:27;5.964747906;;5.964747906;;;;;;;
71550;SPS30;59367;48.414;9.872;2022-11-09T02:56:34;6.714999199;;6.714999199;;;;;;;
71550;SPS30;59367;48.414;9.872;2022-11-09T02:57:40;6.95017767;;6.95017767;;;;;;;
71550;SPS30;59367;48.414;9.872;2022-11-09T02:58:46;6.535413742;;6.535413742;;;;;;;
71550;SPS30;59367;48.414;9.872;2022-11-09T02:59:53;6.624686718;;6.624686718;;;;;;;
71550;SPS30;59367;48.414;9.872;2022-11-09T03:00:59;6.366981983;;6.366981983;;;;;;;
71550;SPS30;59367;48.414;9.872;2022-11-09T03:02:06;6.835888386;;6.835888386;;;;;;;
71550;SPS30;59367;48.414;9.872;2022-11-09T03:03:12;6.341771603;;6.341771603;;;;;;;
71550;SPS30;59367;48.414;9.872;2022-11-09T03:04:19;6.185975075;;6.185975075;;;;;;;
71550;SPS30;59367;48.414;9.872;2022-11-09T03:05:25;6.017577171;;6.017577171;;;;;;;
71550;SPS30;59367;48.414;9.872;2022-11-09T03:06:32;5.561413288;;5.561413288;;;;;;;
71550;SPS30;59367;48.414;9.872;2022-11-09T03:07:38;6.035535336;;6.035535336;;;;;;;
71550;SPS30;59367;48.414;9.872;2022-11-09T03:08:45;6.822598457;;6.822598457;;;;;;;
71550;SPS30;59367;48.414;9.872;2022-11-09T03:09:51;6.381949902;;6.381949902;;;;;;;
71550;SPS30;59367;48.414;9.872;2022-11-09T03:10:57;6.421720028;;6.421720028;;;;;;;
71550;SPS30;59367;48.414;9.872;2022-11-09T03:12:04;5.776795864;;5.776795864;;;;;;;
71550;SPS30;59367;48.414;9.872;2022-11-09T03:13:11;5.952487946;;5.952487946;;;;;;;
71550;SPS30;59367;48.414;9.872;2022-11-09T03:14:17;6.690335274;;6.690335274;;;;;;;
71550;SPS30;59367;48.414;9.872;2022-11-09T03:15:24;6.757090092;;6.757090092;;;;;;;
71550;SPS30;59367;48.414;9.872;2022-11-09T03:16:31;6.600335121;;6.600335121;;;;;;;
71550;SPS30;59367;48.414;9.872;2022-11-09T03:17:38;6.127751827;;6.127751827;;;;;;;
71550;SPS30;59367;48.414;9.872;2022-11-09T03:18:44;5.145241261;;5.145241261;;;;;;;
71550;SPS30;59367;48.414;9.872;2022-11-09T03:19:51;6.26660347;;6.26660347;;;;;;;
71550;SPS30;59367;48.414;9.872;2022-11-09T03:21:02;6.292763233;;6.292763233;;;;;;;
71550;SPS30;59367;48.414;9.872;2022-11-09T03:22:09;6.324052811;;6.324052811;;;;;;;
71550;SPS30;59367;48.414;9.872;2022-11-09T03:23:16;6.17715168;;6.17715168;;;;;;;
71550;SPS30;59367;48.414;9.872;2022-11-09T03:24:22;5.814743519;;5.814743519;;;;;;;
71550;SPS30;59367;48.414;9.872;2022-11-09T03:25:29;5.068594456;;5.068594456;;;;;;;
71550;SPS30;59367;48.414;9.872;2022-11-09T03:26:35;6.556433201;;6.556433201;;;;;;;
71550;SPS30;59367;48.414;9.872;2022-11-09T03:27:42;6.666334629;;6.666334629;;;;;;;
71550;SPS30;59367;48.414;9.872;2022-11-09T03:28:48;5.681741238;;5.681741238;;;;;;;
71550;SPS30;59367;48.414;9.872;2022-11-09T03:29:55;6.793188572;;6.793188572;;;;;;;
71550;SPS30;59367;48.414;9.872;2022-11-09T03:31:02;7.008493423;;7.008493423;;;;;;;
71550;SPS30;59367;48.414;9.872;2022-11-09T03:32:08;6.748934269;;6.748934269;;;;;;;
71550;SPS30;59367;48.414;9.872;2022-11-09T03:33:15;6.601956844;;6.601956844;;;;;;;
71550;SPS30;59367;48.414;9.872;2022-11-09T03:34:21;6.336635113;;6.336635113;;;;;;;
71550;SPS30;59367;48.414;9.872;2022-11-09T03:35:28;6.454053879;;6.454053879;;;;;;;
71550;SPS30;59367;48.414;9.872;2022-11-09T03:37:38;6.450078487;;6.450078487;;;;;;;
71550;SPS30;59367;48.414;9.872;2022-11-09T03:38:44;6.392372608;;6.392372608;;;;;;;
71550;SPS30;59367;48.414;9.872;2022-11-09T03:39:51;5.933358192;;5.933358192;;;;;;;
71550;SPS30;59367;48.414;9.872;2022-11-09T03:40:57;6.48767519;;6.48767519;;;;;;;
71550;SPS30;59367;48.414;9.872;2022-11-09T03:42:04;6.132107735;;6.132107735;;;;;;;
71550;SPS30;59367;48.414;9.872;2022-11-09T03:43:11;5.57495451;;5.57495451;;;;;;;
71550;SPS30;59367;48.414;9.872;2022-11-09T03:44:17;5.433076859;;5.433076859;;;;;;;
71550;SPS30;59367;48.414;9.872;2022-11-09T03:45:24;5.926688671;;5.926688671;;;;;;;
71550;SPS30;59367;48.414;9.872;2022-11-09T03:46:31;6.411854267;;6.411854267;;;;;;;
71550;SPS30;59367;48.414;9.872;2022-11-09T03:47:41;6.201891422;;6.201891422;;;;;;;
71550;SPS30;59367;48.414;9.872;2022-11-09T03:48:49;6.113295078;;6.113295078;;;;;;;
71550;SPS30;59367;48.414;9.872;2022-11-09T03:49:55;5.612810135;;5.612810135;;;;;;;
71550;SPS30;59367;48.414;9.872;2022-11-09T03:51:02;5.496597767;;5.496597767;;;;;;;
71550;SPS30;59367;48.414;9.872;2022-11-09T03:52:08;5.467820168;;5.467820168;;;;;;;
71550;SPS30;59367;48.414;9.872;2022-11-09T03:53:15;5.471441269;;5.471441269;;;;;;;
71550;SPS30;59367;48.414;9.872;2022-11-09T03:54:21;5.767234802;;5.767234802;;;;;;;
71550;SPS30;59367;48.414;9.872;2022-11-09T03:55:28;5.385088921;;5.385088921;;;;;;;
71550;SPS30;59367;48.414;9.872;2022-11-09T03:56:35;6.054116249;;6.054116249;;;;;;;
71550;SPS30;59367;48.414;9.872;2022-11-09T03:57:42;5.957140923;;5.957140923;;;;;;;
71550;SPS30;59367;48.414;9.872;2022-11-09T03:58:49;5.409206867;;5.409206867;;;;;;;
71550;SPS30;59367;48.414;9.872;2022-11-09T03:59:56;5.932404041;;5.932404041;;;;;;;
71550;SPS30;59367;48.414;9.872;2022-11-09T04:01:02;5.922305107;;5.922305107;;;;;;;
71550;SPS30;59367;48.414;9.872;2022-11-09T04:02:09;5.812299728;;5.812299728;;;;;;;
71550;SPS30;59367;48.414;9.872;2022-11-09T04:03:16;5.985496521;;5.985496521;;;;;;;
71550;SPS30;59367;48.414;9.872;2022-11-09T04:04:22;5.875733376;;5.875733376;;;;;;;
71550;SPS30;59367;48.414;9.872;2022-11-09T04:05:29;5.651150703;;5.651150703;;;;;;;
71550;SPS30;59367;48.414;9.872;2022-11-09T04:06:35;5.308074951;;5.308074951;;;;;;;
71550;SPS30;59367;48.414;9.872;2022-11-09T04:07:44;6.212414742;;6.212414742;;;;;;;
71550;SPS30;59367;48.414;9.872;2022-11-09T04:08:53;6.236655712;;6.236655712;;;;;;;
71550;SPS30;59367;48.414;9.872;2022-11-09T04:09:59;6.210506439;;6.210506439;;;;;;;
71550;SPS30;59367;48.414;9.872;2022-11-09T04:11:07;5.623002529;;5.623002529;;;;;;;
71550;SPS30;59367;48.414;9.872;2022-11-09T04:12:13;5.89474678;;5.89474678;;;;;;;
71550;SPS30;59367;48.414;9.872;2022-11-09T04:13:20;6.005912304;;6.005912304;;;;;;;
71550;SPS30;59367;48.414;9.872;2022-11-09T04:14:27;5.536929131;;5.536929131;;;;;;;
71550;SPS30;59367;48.414;9.872;2022-11-09T04:15:33;6.067930222;;6.067930222;;;;;;;
71550;SPS30;59367;48.414;9.872;2022-11-09T04:16:40;6.617079258;;6.617079258;;;;;;;
71550;SPS30;59367;48.414;9.872;2022-11-09T04:17:47;5.823215485;;5.823215485;;;;;;;
71550;SPS30;59367;48.414;9.872;2022-11-09T04:19:00;5.823678017;;5.823678017;;;;;;;
71550;SPS30;59367;48.414;9.872;2022-11-09T04:20:07;5.907464504;;5.907464504;;;;;;;
71550;SPS30;59367;48.414;9.872;2022-11-09T04:21:14;6.724586964;;6.724586964;;;;;;;
71550;SPS30;59367;48.414;9.872;2022-11-09T04:22:21;5.900398731;;5.900398731;;;;;;;
71550;SPS30;59367;48.414;9.872;2022-11-09T04:23:28;5.964207649;;5.964207649;;;;;;;
71550;SPS30;59367;48.414;9.872;2022-11-09T04:24:34;5.872162342;;5.872162342;;;;;;;
71550;SPS30;59367;48.414;9.872;2022-11-09T04:25:41;5.704115868;;5.704115868;;;;;;;
71550;SPS30;59367;48.414;9.872;2022-11-09T04:26:48;6.178812981;;6.178812981;;;;;;;
71550;SPS30;59367;48.414;9.872;2022-11-09T04:27:58;6.087618828;;6.087618828;;;;;;;
71550;SPS30;59367;48.414;9.872;2022-11-09T04:29:06;5.983530045;;5.983530045;;;;;;;
71550;SPS30;59367;48.414;9.872;2022-11-09T04:30:12;6.747801304;;6.747801304;;;;;;;
71550;SPS30;59367;48.414;9.872;2022-11-09T04:31:19;7.316773415;;7.316773415;;;;;;;
71550;SPS30;59367;48.414;9.872;2022-11-09T04:32:26;5.934964657;;5.934964657;;;;;;;
71550;SPS30;59367;48.414;9.872;2022-11-09T04:33:32;6.235909939;;6.235909939;;;;;;;
71550;SPS30;59367;48.414;9.872;2022-11-09T04:34:39;6.225394726;;6.225394726;;;;;;;
71550;SPS30;59367;48.414;9.872;2022-11-09T04:35:45;6.662033081;;6.662033081;;;;;;;
71550;SPS30;59367;48.414;9.872;2022-11-09T04:36:52;5.626104832;;5.626104832;;;;;;;
71550;SPS30;59367;48.414;9.872;2022-11-09T04:37:59;5.675101757;;5.675101757;;;;;;;
71550;SPS30;59367;48.414;9.872;2022-11-09T04:39:07;5.854669094;;5.854669094;;;;;;;
71550;SPS30;59367;48.414;9.872;2022-11-09T04:40:14;5.901319027;;5.901319027;;;;;;;
71550;SPS30;59367;48.414;9.872;2022-11-09T04:41:21;5.310438156;;5.310438156;;;;;;;
71550;SPS30;59367;48.414;9.872;2022-11-09T04:42:29;5.740350246;;5.740350246;;;;;;;
71550;SPS30;59367;48.414;9.872;2022-11-09T04:43:35;5.386526108;;5.386526108;;;;;;;
71550;SPS30;59367;48.414;9.872;2022-11-09T04:44:42;5.581949711;;5.581949711;;;;;;;
71550;SPS30;59367;48.414;9.872;2022-11-09T04:45:48;6.081106663;;6.081106663;;;;;;;
71550;SPS30;59367;48.414;9.872;2022-11-09T04:46:55;6.611043453;;6.611043453;;;;;;;
71550;SPS30;59367;48.414;9.872;2022-11-09T04:48:02;6.559828758;;6.559828758;;;;;;;
71550;SPS30;59367;48.414;9.872;2022-11-09T04:49:10;6.625587463;;6.625587463;;;;;;;
71550;SPS30;59367;48.414;9.872;2022-11-09T04:50:16;5.981479168;;5.981479168;;;;;;;
71550;SPS30;59367;48.414;9.872;2022-11-09T04:51:23;6.656496048;;6.656496048;;;;;;;
71550;SPS30;59367;48.414;9.872;2022-11-09T04:52:29;6.000746727;;6.000746727;;;;;;;
71550;SPS30;59367;48.414;9.872;2022-11-09T04:53:36;6.655448914;;6.655448914;;;;;;;
71550;SPS30;59367;48.414;9.872;2022-11-09T04:54:43;5.963384151;;5.963384151;;;;;;;
71550;SPS30;59367;48.414;9.872;2022-11-09T04:55:49;6.407034397;;6.407034397;;;;;;;
71550;SPS30;59367;48.414;9.872;2022-11-09T04:56:56;6.179965019;;6.179965019;;;;;;;
71550;SPS30;59367;48.414;9.872;2022-11-09T04:58:02;6.448390007;;6.448390007;;;;;;;
71550;SPS30;59367;48.414;9.872;2022-11-09T04:59:10;5.805864334;;5.805864334;;;;;;;
71550;SPS30;59367;48.414;9.872;2022-11-09T05:00:17;6.231527328;;6.231527328;;;;;;;
71550;SPS30;59367;48.414;9.872;2022-11-09T05:01:23;5.918242455;;5.918242455;;;;;;;
71550;SPS30;59367;48.414;9.872;2022-11-09T05:02:30;6.248921871;;6.248921871;;;;;;;
71550;SPS30;59367;48.414;9.872;2022-11-09T05:03:37;6.264163971;;6.264163971;;;;;;;
71550;SPS30;59367;48.414;9.872;2022-11-09T05:04:44;6.303296566;;6.303296566;;;;;;;
71550;SPS30;59367;48.414;9.872;2022-11-09T05:05:51;4.934349537;;4.934349537;;;;;;;
71550;SPS30;59367;48.414;9.872;2022-11-09T05:06:57;5.406903744;;5.406903744;;;;;;;
71550;SPS30;59367;48.414;9.872;2022-11-09T05:08:04;5.735021114;;5.735021114;;;;;;;
71550;SPS30;59367;48.414;9.872;2022-11-09T05:09:11;9.439702034;;9.439702034;;;;;;;
71550;SPS30;59367;48.414;9.872;2022-11-09T05:10:18;11.78028774;;11.78028774;;;;;;;
71550;SPS30;59367;48.414;9.872;2022-11-09T05:11:24;10.38091087;;10.38091087;;;;;;;
71550;SPS30;59367;48.414;9.872;2022-11-09T05:12:31;10.27765274;;10.27765274;;;;;;;
71550;SPS30;59367;48.414;9.872;2022-11-09T05:13:38;9.052466393;;9.052466393;;;;;;;
71550;SPS30;59367;48.414;9.872;2022-11-09T05:14:44;8.204491615;;8.204491615;;;;;;;
71550;SPS30;59367;48.414;9.872;2022-11-09T05:15:51;8.370725632;;8.370725632;;;;;;;
71550;SPS30;59367;48.414;9.872;2022-11-09T05:16:57;7.215101719;;7.215101719;;;;;;;
71550;SPS30;59367;48.414;9.872;2022-11-09T05:18:04;7.614333153;;7.614333153;;;;;;;
71550;SPS30;59367;48.414;9.872;2022-11-09T05:19:12;7.122157097;;7.122157097;;;;;;;
71550;SPS30;59367;48.414;9.872;2022-11-09T05:20:19;6.628180504;;6.621202469;;;;;;;
71550;SPS30;59367;48.414;9.872;2022-11-09T05:21:25;5.913346291;;5.91309309;;;;;;;
71550;SPS30;59367;48.414;9.872;2022-11-09T05:22:32;7.002437592;;7.002437592;;;;;;;
71550;SPS30;59367;48.414;9.872;2022-11-09T05:23:41;6.408146858;;6.408146858;;;;;;;
71550;SPS30;59367;48.414;9.872;2022-11-09T05:24:47;5.333209038;;5.333209038;;;;;;;